sensor_id;sensor_type;location;lat;lon;timestamp;P1;durP1;ratioP1;P2;durP2;ratioP2
4460;SDS011;2243;48.812;9.232;2023-06-19T00:00:52;9.73;;;8.83;;
4460;SDS011;2243;48.812;9.232;2023-06-19T00:03:24;9.07;;;8.27;;
4460;SDS011;2243;48.812;9.232;2023-06-19T00:05:55;10.00;;;9.00;;
4460;SDS011;2243;48.812;9.232;2023-06-19T00:08:26;11.00;;;9.60;;
4460;SDS011;2243;48.812;9.232;2023-06-19T00:10:57;10.07;;;8.87;;
4460;SDS011;2243;48.812;9.232;2023-06-19T00:13:28;9.70;;;8.80;;
4460;SDS011;2243;48.812;9.232;2023-06-19T00:15:59;9.07;;;8.20;;
4460;SDS011;2243;48.812;9.232;2023-06-19T00:18:31;9.20;;;8.43;;
4460;SDS011;2243;48.812;9.232;2023-06-19T00:21:10;9.80;;;8.20;;
4460;SDS011;2243;48.812;9.232;2023-06-19T00:23:41;8.83;;;8.10;;
4460;SDS011;2243;48.812;9.232;2023-06-19T00:26:12;9.03;;;8.13;;
4460;SDS011;2243;48.812;9.232;2023-06-19T00:28:44;8.40;;;7.70;;
4460;SDS011;2243;48.812;9.232;2023-06-19T00:31:18;10.03;;;8.30;;
4460;SDS011;2243;48.812;9.232;2023-06-19T00:33:49;9.57;;;8.77;;
4460;SDS011;2243;48.812;9.232;2023-06-19T00:36:21;9.33;;;8.43;;
4460;SDS011;2243;48.812;9.232;2023-06-19T00:38:53;8.90;;;8.17;;
4460;SDS011;2243;48.812;9.232;2023-06-19T00:41:25;10.33;;;9.33;;
4460;SDS011;2243;48.812;9.232;2023-06-19T00:43:58;9.07;;;8.27;;
4460;SDS011;2243;48.812;9.232;2023-06-19T00:46:29;9.90;;;8.83;;
4460;SDS011;2243;48.812;9.232;2023-06-19T00:49:00;11.60;;;8.97;;
4460;SDS011;2243;48.812;9.232;2023-06-19T00:51:31;8.57;;;7.77;;
4460;SDS011;2243;48.812;9.232;2023-06-19T00:54:03;9.53;;;7.40;;
4460;SDS011;2243;48.812;9.232;2023-06-19T00:56:36;9.93;;;9.03;;
4460;SDS011;2243;48.812;9.232;2023-06-19T00:59:11;8.30;;;7.63;;
4460;SDS011;2243;48.812;9.232;2023-06-19T01:01:50;9.27;;;8.30;;
4460;SDS011;2243;48.812;9.232;2023-06-19T01:04:21;11.20;;;8.67;;
4460;SDS011;2243;48.812;9.232;2023-06-19T01:06:54;8.57;;;7.67;;
4460;SDS011;2243;48.812;9.232;2023-06-19T01:09:28;7.33;;;6.73;;
4460;SDS011;2243;48.812;9.232;2023-06-19T01:12:06;8.63;;;7.83;;
4460;SDS011;2243;48.812;9.232;2023-06-19T01:14:50;8.43;;;7.63;;
4460;SDS011;2243;48.812;9.232;2023-06-19T01:17:28;13.20;;;7.70;;
4460;SDS011;2243;48.812;9.232;2023-06-19T01:20:00;9.10;;;8.30;;
4460;SDS011;2243;48.812;9.232;2023-06-19T01:22:39;13.20;;;7.63;;
4460;SDS011;2243;48.812;9.232;2023-06-19T01:25:10;7.93;;;7.23;;
4460;SDS011;2243;48.812;9.232;2023-06-19T01:27:44;8.07;;;7.33;;
4460;SDS011;2243;48.812;9.232;2023-06-19T01:30:15;6.93;;;5.50;;
4460;SDS011;2243;48.812;9.232;2023-06-19T01:35:27;6.00;;;5.40;;
4460;SDS011;2243;48.812;9.232;2023-06-19T01:38:01;6.00;;;5.40;;
4460;SDS011;2243;48.812;9.232;2023-06-19T01:40:33;5.83;;;5.27;;
4460;SDS011;2243;48.812;9.232;2023-06-19T01:43:05;5.87;;;5.40;;
4460;SDS011;2243;48.812;9.232;2023-06-19T01:45:38;6.23;;;5.77;;
4460;SDS011;2243;48.812;9.232;2023-06-19T01:48:10;5.97;;;5.47;;
4460;SDS011;2243;48.812;9.232;2023-06-19T01:50:45;6.13;;;5.63;;
4460;SDS011;2243;48.812;9.232;2023-06-19T01:53:17;6.20;;;5.47;;
4460;SDS011;2243;48.812;9.232;2023-06-19T01:55:48;6.00;;;5.50;;
4460;SDS011;2243;48.812;9.232;2023-06-19T01:58:20;5.97;;;5.00;;
4460;SDS011;2243;48.812;9.232;2023-06-19T02:00:51;6.23;;;5.70;;
4460;SDS011;2243;48.812;9.232;2023-06-19T02:03:22;5.23;;;4.83;;
4460;SDS011;2243;48.812;9.232;2023-06-19T02:05:53;6.23;;;5.73;;
4460;SDS011;2243;48.812;9.232;2023-06-19T02:08:24;8.60;;;5.17;;
4460;SDS011;2243;48.812;9.232;2023-06-19T02:10:54;6.40;;;5.80;;
4460;SDS011;2243;48.812;9.232;2023-06-19T02:13:26;6.57;;;5.50;;
4460;SDS011;2243;48.812;9.232;2023-06-19T02:15:57;6.07;;;5.67;;
4460;SDS011;2243;48.812;9.232;2023-06-19T02:18:28;5.90;;;5.30;;
4460;SDS011;2243;48.812;9.232;2023-06-19T02:20:59;6.93;;;6.23;;
4460;SDS011;2243;48.812;9.232;2023-06-19T02:23:30;5.70;;;5.30;;
4460;SDS011;2243;48.812;9.232;2023-06-19T02:26:01;5.30;;;4.90;;
4460;SDS011;2243;48.812;9.232;2023-06-19T02:28:32;5.13;;;4.70;;
4460;SDS011;2243;48.812;9.232;2023-06-19T02:31:03;5.50;;;5.20;;
4460;SDS011;2243;48.812;9.232;2023-06-19T02:33:34;6.30;;;5.70;;
4460;SDS011;2243;48.812;9.232;2023-06-19T02:36:05;6.47;;;5.87;;
4460;SDS011;2243;48.812;9.232;2023-06-19T02:38:36;7.77;;;5.60;;
4460;SDS011;2243;48.812;9.232;2023-06-19T02:41:07;5.70;;;5.20;;
4460;SDS011;2243;48.812;9.232;2023-06-19T02:43:38;5.60;;;4.90;;
4460;SDS011;2243;48.812;9.232;2023-06-19T02:46:11;5.40;;;5.00;;
4460;SDS011;2243;48.812;9.232;2023-06-19T02:48:42;6.73;;;5.90;;
4460;SDS011;2243;48.812;9.232;2023-06-19T02:51:13;5.23;;;4.73;;
4460;SDS011;2243;48.812;9.232;2023-06-19T02:53:44;4.90;;;4.60;;
4460;SDS011;2243;48.812;9.232;2023-06-19T02:56:16;5.30;;;4.90;;
4460;SDS011;2243;48.812;9.232;2023-06-19T02:58:47;5.63;;;5.23;;
4460;SDS011;2243;48.812;9.232;2023-06-19T03:01:18;5.90;;;5.50;;
4460;SDS011;2243;48.812;9.232;2023-06-19T03:03:49;5.80;;;5.40;;
4460;SDS011;2243;48.812;9.232;2023-06-19T03:06:22;5.37;;;4.90;;
4460;SDS011;2243;48.812;9.232;2023-06-19T03:08:53;6.30;;;5.47;;
4460;SDS011;2243;48.812;9.232;2023-06-19T03:11:24;5.90;;;5.43;;
4460;SDS011;2243;48.812;9.232;2023-06-19T03:13:55;5.63;;;5.00;;
4460;SDS011;2243;48.812;9.232;2023-06-19T03:16:27;7.23;;;5.00;;
4460;SDS011;2243;48.812;9.232;2023-06-19T03:18:58;6.33;;;5.83;;
4460;SDS011;2243;48.812;9.232;2023-06-19T03:21:28;7.67;;;5.97;;
4460;SDS011;2243;48.812;9.232;2023-06-19T03:24:00;5.83;;;5.23;;
4460;SDS011;2243;48.812;9.232;2023-06-19T03:26:31;7.20;;;6.50;;
4460;SDS011;2243;48.812;9.232;2023-06-19T03:29:02;7.17;;;6.53;;
4460;SDS011;2243;48.812;9.232;2023-06-19T03:31:33;9.30;;;6.93;;
4460;SDS011;2243;48.812;9.232;2023-06-19T03:34:04;6.33;;;5.47;;
4460;SDS011;2243;48.812;9.232;2023-06-19T03:36:35;6.13;;;4.93;;
4460;SDS011;2243;48.812;9.232;2023-06-19T03:39:06;4.80;;;4.50;;
4460;SDS011;2243;48.812;9.232;2023-06-19T03:41:38;4.00;;;3.80;;
4460;SDS011;2243;48.812;9.232;2023-06-19T03:44:08;4.30;;;3.97;;
4460;SDS011;2243;48.812;9.232;2023-06-19T03:46:39;4.07;;;3.77;;
4460;SDS011;2243;48.812;9.232;2023-06-19T03:49:10;3.97;;;3.73;;
4460;SDS011;2243;48.812;9.232;2023-06-19T03:51:41;3.80;;;3.60;;
4460;SDS011;2243;48.812;9.232;2023-06-19T03:54:13;3.90;;;3.60;;
4460;SDS011;2243;48.812;9.232;2023-06-19T03:56:44;4.03;;;3.83;;
4460;SDS011;2243;48.812;9.232;2023-06-19T03:59:15;3.17;;;2.97;;
4460;SDS011;2243;48.812;9.232;2023-06-19T04:01:46;3.73;;;3.30;;
4460;SDS011;2243;48.812;9.232;2023-06-19T04:04:17;4.93;;;3.27;;
4460;SDS011;2243;48.812;9.232;2023-06-19T04:06:48;3.60;;;3.40;;
4460;SDS011;2243;48.812;9.232;2023-06-19T04:09:19;4.17;;;3.47;;
4460;SDS011;2243;48.812;9.232;2023-06-19T04:11:50;3.30;;;3.10;;
4460;SDS011;2243;48.812;9.232;2023-06-19T04:14:21;3.40;;;3.20;;
4460;SDS011;2243;48.812;9.232;2023-06-19T04:16:53;3.37;;;3.17;;
4460;SDS011;2243;48.812;9.232;2023-06-19T04:19:24;3.60;;;3.40;;
4460;SDS011;2243;48.812;9.232;2023-06-19T04:21:55;3.50;;;3.30;;
4460;SDS011;2243;48.812;9.232;2023-06-19T04:24:26;3.87;;;3.60;;
4460;SDS011;2243;48.812;9.232;2023-06-19T04:26:57;3.97;;;3.60;;
4460;SDS011;2243;48.812;9.232;2023-06-19T04:29:28;3.70;;;3.40;;
4460;SDS011;2243;48.812;9.232;2023-06-19T04:32:01;3.43;;;3.23;;
4460;SDS011;2243;48.812;9.232;2023-06-19T04:34:42;3.13;;;2.93;;
4460;SDS011;2243;48.812;9.232;2023-06-19T04:37:16;5.60;;;3.37;;
4460;SDS011;2243;48.812;9.232;2023-06-19T04:39:49;3.53;;;3.33;;
4460;SDS011;2243;48.812;9.232;2023-06-19T04:42:20;3.87;;;3.57;;
4460;SDS011;2243;48.812;9.232;2023-06-19T04:44:51;3.40;;;3.20;;
4460;SDS011;2243;48.812;9.232;2023-06-19T04:47:23;3.17;;;2.97;;
4460;SDS011;2243;48.812;9.232;2023-06-19T04:50:06;3.30;;;3.00;;
4460;SDS011;2243;48.812;9.232;2023-06-19T04:52:38;3.10;;;2.90;;
4460;SDS011;2243;48.812;9.232;2023-06-19T04:55:09;3.90;;;3.60;;
4460;SDS011;2243;48.812;9.232;2023-06-19T04:57:40;4.13;;;3.90;;
4460;SDS011;2243;48.812;9.232;2023-06-19T05:00:11;5.73;;;3.70;;
4460;SDS011;2243;48.812;9.232;2023-06-19T05:02:45;3.50;;;3.30;;
4460;SDS011;2243;48.812;9.232;2023-06-19T05:05:17;5.03;;;3.33;;
4460;SDS011;2243;48.812;9.232;2023-06-19T05:07:53;3.60;;;3.30;;
4460;SDS011;2243;48.812;9.232;2023-06-19T05:10:24;6.83;;;4.40;;
4460;SDS011;2243;48.812;9.232;2023-06-19T05:12:55;3.87;;;3.33;;
4460;SDS011;2243;48.812;9.232;2023-06-19T05:15:26;4.03;;;3.63;;
4460;SDS011;2243;48.812;9.232;2023-06-19T05:17:58;4.03;;;3.73;;
4460;SDS011;2243;48.812;9.232;2023-06-19T05:20:29;6.63;;;3.17;;
4460;SDS011;2243;48.812;9.232;2023-06-19T05:23:00;4.73;;;3.10;;
4460;SDS011;2243;48.812;9.232;2023-06-19T05:25:31;3.20;;;3.00;;
4460;SDS011;2243;48.812;9.232;2023-06-19T05:28:02;5.00;;;3.43;;
4460;SDS011;2243;48.812;9.232;2023-06-19T05:30:35;4.67;;;3.37;;
4460;SDS011;2243;48.812;9.232;2023-06-19T05:33:06;3.53;;;3.23;;
4460;SDS011;2243;48.812;9.232;2023-06-19T05:35:37;4.17;;;3.87;;
4460;SDS011;2243;48.812;9.232;2023-06-19T05:38:08;4.73;;;4.37;;
4460;SDS011;2243;48.812;9.232;2023-06-19T05:40:40;4.20;;;3.80;;
4460;SDS011;2243;48.812;9.232;2023-06-19T05:43:11;3.43;;;3.17;;
4460;SDS011;2243;48.812;9.232;2023-06-19T05:45:42;3.83;;;3.63;;
4460;SDS011;2243;48.812;9.232;2023-06-19T05:48:13;4.07;;;3.33;;
4460;SDS011;2243;48.812;9.232;2023-06-19T05:50:45;3.40;;;3.00;;
4460;SDS011;2243;48.812;9.232;2023-06-19T05:53:16;3.23;;;3.03;;
4460;SDS011;2243;48.812;9.232;2023-06-19T05:55:47;3.30;;;3.10;;
4460;SDS011;2243;48.812;9.232;2023-06-19T05:58:18;3.80;;;3.50;;
4460;SDS011;2243;48.812;9.232;2023-06-19T06:00:51;3.30;;;3.10;;
4460;SDS011;2243;48.812;9.232;2023-06-19T06:03:28;3.33;;;3.13;;
4460;SDS011;2243;48.812;9.232;2023-06-19T06:06:01;3.90;;;3.60;;
4460;SDS011;2243;48.812;9.232;2023-06-19T06:08:35;3.40;;;3.20;;
4460;SDS011;2243;48.812;9.232;2023-06-19T06:11:06;3.70;;;3.50;;
4460;SDS011;2243;48.812;9.232;2023-06-19T06:13:37;3.43;;;3.10;;
4460;SDS011;2243;48.812;9.232;2023-06-19T06:16:09;3.80;;;3.50;;
4460;SDS011;2243;48.812;9.232;2023-06-19T06:18:40;6.07;;;3.60;;
4460;SDS011;2243;48.812;9.232;2023-06-19T06:21:11;3.60;;;3.40;;
4460;SDS011;2243;48.812;9.232;2023-06-19T06:23:43;5.53;;;3.30;;
4460;SDS011;2243;48.812;9.232;2023-06-19T06:26:15;4.90;;;3.70;;
4460;SDS011;2243;48.812;9.232;2023-06-19T06:28:46;4.00;;;3.63;;
4460;SDS011;2243;48.812;9.232;2023-06-19T06:31:17;4.10;;;3.90;;
4460;SDS011;2243;48.812;9.232;2023-06-19T06:33:48;4.80;;;4.40;;
4460;SDS011;2243;48.812;9.232;2023-06-19T06:36:19;4.90;;;4.50;;
4460;SDS011;2243;48.812;9.232;2023-06-19T06:39:05;4.80;;;4.40;;
4460;SDS011;2243;48.812;9.232;2023-06-19T06:41:36;7.23;;;4.53;;
4460;SDS011;2243;48.812;9.232;2023-06-19T06:44:07;4.10;;;3.80;;
4460;SDS011;2243;48.812;9.232;2023-06-19T06:46:38;7.03;;;4.47;;
4460;SDS011;2243;48.812;9.232;2023-06-19T06:49:09;4.83;;;4.43;;
4460;SDS011;2243;48.812;9.232;2023-06-19T06:51:41;6.77;;;3.80;;
4460;SDS011;2243;48.812;9.232;2023-06-19T06:54:12;3.50;;;3.20;;
4460;SDS011;2243;48.812;9.232;2023-06-19T06:56:43;4.40;;;4.00;;
4460;SDS011;2243;48.812;9.232;2023-06-19T06:59:18;2.97;;;2.83;;
4460;SDS011;2243;48.812;9.232;2023-06-19T07:01:49;3.50;;;3.30;;
4460;SDS011;2243;48.812;9.232;2023-06-19T07:04:20;2.40;;;2.27;;
4460;SDS011;2243;48.812;9.232;2023-06-19T07:06:51;3.20;;;2.57;;
4460;SDS011;2243;48.812;9.232;2023-06-19T07:09:22;2.80;;;2.70;;
4460;SDS011;2243;48.812;9.232;2023-06-19T07:11:53;3.33;;;3.13;;
4460;SDS011;2243;48.812;9.232;2023-06-19T07:14:24;3.03;;;2.83;;
4460;SDS011;2243;48.812;9.232;2023-06-19T07:16:55;3.27;;;3.00;;
4460;SDS011;2243;48.812;9.232;2023-06-19T07:19:26;3.30;;;3.10;;
4460;SDS011;2243;48.812;9.232;2023-06-19T07:21:57;2.60;;;2.50;;
4460;SDS011;2243;48.812;9.232;2023-06-19T07:24:29;3.03;;;2.73;;
4460;SDS011;2243;48.812;9.232;2023-06-19T07:27:00;2.80;;;2.60;;
4460;SDS011;2243;48.812;9.232;2023-06-19T07:29:31;2.93;;;2.73;;
4460;SDS011;2243;48.812;9.232;2023-06-19T07:32:03;2.47;;;2.37;;
4460;SDS011;2243;48.812;9.232;2023-06-19T07:34:35;2.90;;;2.77;;
4460;SDS011;2243;48.812;9.232;2023-06-19T07:37:06;4.00;;;2.70;;
4460;SDS011;2243;48.812;9.232;2023-06-19T07:39:37;2.30;;;2.20;;
4460;SDS011;2243;48.812;9.232;2023-06-19T07:42:18;3.10;;;2.90;;
4460;SDS011;2243;48.812;9.232;2023-06-19T07:44:55;2.60;;;2.50;;
4460;SDS011;2243;48.812;9.232;2023-06-19T07:47:29;2.60;;;2.50;;
4460;SDS011;2243;48.812;9.232;2023-06-19T07:50:16;2.83;;;2.63;;
4460;SDS011;2243;48.812;9.232;2023-06-19T07:52:46;3.47;;;2.50;;
4460;SDS011;2243;48.812;9.232;2023-06-19T07:55:17;2.80;;;2.60;;
4460;SDS011;2243;48.812;9.232;2023-06-19T07:58:00;2.67;;;2.57;;
4460;SDS011;2243;48.812;9.232;2023-06-19T08:00:35;2.00;;;1.90;;
4460;SDS011;2243;48.812;9.232;2023-06-19T08:03:19;2.83;;;2.70;;
4460;SDS011;2243;48.812;9.232;2023-06-19T08:05:57;2.40;;;2.30;;
4460;SDS011;2243;48.812;9.232;2023-06-19T08:08:39;2.30;;;2.20;;
4460;SDS011;2243;48.812;9.232;2023-06-19T08:11:13;2.37;;;2.27;;
4460;SDS011;2243;48.812;9.232;2023-06-19T08:13:46;2.53;;;2.43;;
4460;SDS011;2243;48.812;9.232;2023-06-19T08:16:17;2.37;;;2.17;;
4460;SDS011;2243;48.812;9.232;2023-06-19T08:18:53;2.53;;;2.33;;
4460;SDS011;2243;48.812;9.232;2023-06-19T08:21:39;2.10;;;2.00;;
4460;SDS011;2243;48.812;9.232;2023-06-19T08:24:12;2.20;;;2.10;;
4460;SDS011;2243;48.812;9.232;2023-06-19T08:26:43;2.17;;;2.07;;
4460;SDS011;2243;48.812;9.232;2023-06-19T08:29:20;2.50;;;2.40;;
4460;SDS011;2243;48.812;9.232;2023-06-19T08:31:56;2.83;;;2.63;;
4460;SDS011;2243;48.812;9.232;2023-06-19T08:34:33;3.10;;;2.83;;
4460;SDS011;2243;48.812;9.232;2023-06-19T08:37:30;2.73;;;2.53;;
4460;SDS011;2243;48.812;9.232;2023-06-19T08:40:07;5.40;;;2.83;;
4460;SDS011;2243;48.812;9.232;2023-06-19T08:42:42;2.90;;;2.70;;
4460;SDS011;2243;48.812;9.232;2023-06-19T08:45:16;3.00;;;2.80;;
4460;SDS011;2243;48.812;9.232;2023-06-19T08:48:13;3.30;;;2.70;;
4460;SDS011;2243;48.812;9.232;2023-06-19T08:50:47;2.80;;;2.70;;
4460;SDS011;2243;48.812;9.232;2023-06-19T08:53:18;2.87;;;2.67;;
4460;SDS011;2243;48.812;9.232;2023-06-19T08:55:49;2.90;;;2.80;;
4460;SDS011;2243;48.812;9.232;2023-06-19T08:58:21;3.00;;;2.90;;
4460;SDS011;2243;48.812;9.232;2023-06-19T09:00:53;2.90;;;2.80;;
4460;SDS011;2243;48.812;9.232;2023-06-19T09:03:24;3.70;;;3.50;;
4460;SDS011;2243;48.812;9.232;2023-06-19T09:05:56;3.37;;;3.17;;
4460;SDS011;2243;48.812;9.232;2023-06-19T09:08:33;7.00;;;3.00;;
4460;SDS011;2243;48.812;9.232;2023-06-19T09:11:04;3.63;;;3.43;;
4460;SDS011;2243;48.812;9.232;2023-06-19T09:13:39;2.83;;;2.63;;
4460;SDS011;2243;48.812;9.232;2023-06-19T09:16:10;4.00;;;3.80;;
4460;SDS011;2243;48.812;9.232;2023-06-19T09:18:42;4.50;;;3.60;;
4460;SDS011;2243;48.812;9.232;2023-06-19T09:21:18;3.50;;;3.27;;
4460;SDS011;2243;48.812;9.232;2023-06-19T09:23:52;3.80;;;3.60;;
4460;SDS011;2243;48.812;9.232;2023-06-19T09:26:23;3.63;;;3.33;;
4460;SDS011;2243;48.812;9.232;2023-06-19T09:28:54;3.50;;;3.30;;
4460;SDS011;2243;48.812;9.232;2023-06-19T09:31:32;3.17;;;2.83;;
4460;SDS011;2243;48.812;9.232;2023-06-19T09:34:04;3.43;;;3.23;;
4460;SDS011;2243;48.812;9.232;2023-06-19T09:36:35;3.70;;;3.50;;
4460;SDS011;2243;48.812;9.232;2023-06-19T09:39:06;3.07;;;2.97;;
4460;SDS011;2243;48.812;9.232;2023-06-19T09:41:38;2.90;;;2.80;;
4460;SDS011;2243;48.812;9.232;2023-06-19T09:44:11;3.87;;;3.57;;
4460;SDS011;2243;48.812;9.232;2023-06-19T09:46:45;3.30;;;3.10;;
4460;SDS011;2243;48.812;9.232;2023-06-19T09:49:18;3.77;;;3.30;;
4460;SDS011;2243;48.812;9.232;2023-06-19T09:51:50;6.90;;;3.10;;
4460;SDS011;2243;48.812;9.232;2023-06-19T09:54:21;4.10;;;3.80;;
4460;SDS011;2243;48.812;9.232;2023-06-19T09:56:54;4.03;;;3.73;;
4460;SDS011;2243;48.812;9.232;2023-06-19T09:59:28;4.27;;;3.50;;
4460;SDS011;2243;48.812;9.232;2023-06-19T10:01:59;3.47;;;3.17;;
4460;SDS011;2243;48.812;9.232;2023-06-19T10:04:41;3.90;;;3.60;;
4460;SDS011;2243;48.812;9.232;2023-06-19T10:09:57;3.90;;;3.47;;
4460;SDS011;2243;48.812;9.232;2023-06-19T10:12:40;4.20;;;4.00;;
4460;SDS011;2243;48.812;9.232;2023-06-19T10:15:22;3.50;;;3.20;;
4460;SDS011;2243;48.812;9.232;2023-06-19T10:18:02;3.50;;;3.30;;
4460;SDS011;2243;48.812;9.232;2023-06-19T10:20:36;3.90;;;3.60;;
4460;SDS011;2243;48.812;9.232;2023-06-19T10:28:29;3.90;;;3.70;;
4460;SDS011;2243;48.812;9.232;2023-06-19T10:31:03;4.17;;;3.87;;
4460;SDS011;2243;48.812;9.232;2023-06-19T10:33:37;4.30;;;4.00;;
4460;SDS011;2243;48.812;9.232;2023-06-19T10:36:18;3.57;;;3.37;;
4460;SDS011;2243;48.812;9.232;2023-06-19T10:38:53;4.00;;;3.70;;
4460;SDS011;2243;48.812;9.232;2023-06-19T10:41:25;3.20;;;3.00;;
4460;SDS011;2243;48.812;9.232;2023-06-19T10:44:06;3.73;;;3.50;;
4460;SDS011;2243;48.812;9.232;2023-06-19T10:46:43;4.43;;;3.70;;
4460;SDS011;2243;48.812;9.232;2023-06-19T10:49:14;3.87;;;3.57;;
4460;SDS011;2243;48.812;9.232;2023-06-19T10:51:48;3.70;;;3.50;;
4460;SDS011;2243;48.812;9.232;2023-06-19T10:54:19;4.37;;;4.00;;
4460;SDS011;2243;48.812;9.232;2023-06-19T10:56:50;7.00;;;4.27;;
4460;SDS011;2243;48.812;9.232;2023-06-19T10:59:21;4.13;;;3.73;;
4460;SDS011;2243;48.812;9.232;2023-06-19T11:01:55;4.27;;;3.97;;
4460;SDS011;2243;48.812;9.232;2023-06-19T11:04:27;3.67;;;3.47;;
4460;SDS011;2243;48.812;9.232;2023-06-19T11:06:58;4.30;;;3.90;;
4460;SDS011;2243;48.812;9.232;2023-06-19T11:09:35;3.83;;;3.63;;
4460;SDS011;2243;48.812;9.232;2023-06-19T11:12:06;3.77;;;3.50;;
4460;SDS011;2243;48.812;9.232;2023-06-19T11:14:39;3.10;;;2.90;;
4460;SDS011;2243;48.812;9.232;2023-06-19T11:17:10;4.00;;;3.30;;
4460;SDS011;2243;48.812;9.232;2023-06-19T11:19:41;3.87;;;3.57;;
4460;SDS011;2243;48.812;9.232;2023-06-19T11:22:13;5.37;;;3.33;;
4460;SDS011;2243;48.812;9.232;2023-06-19T11:24:45;3.10;;;2.90;;
4460;SDS011;2243;48.812;9.232;2023-06-19T11:27:17;3.83;;;3.50;;
4460;SDS011;2243;48.812;9.232;2023-06-19T11:29:58;3.20;;;3.10;;
4460;SDS011;2243;48.812;9.232;2023-06-19T11:32:38;3.78;;;2.45;;
4460;SDS011;2243;48.812;9.232;2023-06-19T11:35:12;3.50;;;3.38;;
4460;SDS011;2243;48.812;9.232;2023-06-19T11:37:43;2.85;;;2.75;;
4460;SDS011;2243;48.812;9.232;2023-06-19T11:40:14;2.80;;;2.70;;
4460;SDS011;2243;48.812;9.232;2023-06-19T11:42:49;3.00;;;2.85;;
4460;SDS011;2243;48.812;9.232;2023-06-19T11:45:24;3.10;;;2.88;;
4460;SDS011;2243;48.812;9.232;2023-06-19T11:47:55;3.60;;;3.40;;
4460;SDS011;2243;48.812;9.232;2023-06-19T11:50:27;2.88;;;2.78;;
4460;SDS011;2243;48.812;9.232;2023-06-19T11:52:58;4.10;;;3.80;;
4460;SDS011;2243;48.812;9.232;2023-06-19T11:55:31;9.00;;;3.60;;
4460;SDS011;2243;48.812;9.232;2023-06-19T11:58:02;2.73;;;2.63;;
4460;SDS011;2243;48.812;9.232;2023-06-19T12:00:33;3.57;;;3.37;;
4460;SDS011;2243;48.812;9.232;2023-06-19T12:03:04;3.20;;;3.10;;
4460;SDS011;2243;48.812;9.232;2023-06-19T12:05:36;3.70;;;3.50;;
4460;SDS011;2243;48.812;9.232;2023-06-19T12:08:07;3.60;;;3.30;;
4460;SDS011;2243;48.812;9.232;2023-06-19T12:10:38;4.00;;;3.70;;
4460;SDS011;2243;48.812;9.232;2023-06-19T12:13:09;3.40;;;3.20;;
4460;SDS011;2243;48.812;9.232;2023-06-19T12:15:40;4.03;;;3.80;;
4460;SDS011;2243;48.812;9.232;2023-06-19T12:18:12;4.00;;;3.70;;
4460;SDS011;2243;48.812;9.232;2023-06-19T12:20:44;3.97;;;3.47;;
4460;SDS011;2243;48.812;9.232;2023-06-19T12:23:15;3.63;;;3.43;;
4460;SDS011;2243;48.812;9.232;2023-06-19T12:25:46;3.67;;;3.47;;
4460;SDS011;2243;48.812;9.232;2023-06-19T12:28:17;4.80;;;4.40;;
4460;SDS011;2243;48.812;9.232;2023-06-19T12:30:49;4.03;;;3.83;;
4460;SDS011;2243;48.812;9.232;2023-06-19T12:33:22;3.40;;;3.27;;
4460;SDS011;2243;48.812;9.232;2023-06-19T12:35:53;4.60;;;4.30;;
4460;SDS011;2243;48.812;9.232;2023-06-19T12:38:24;3.73;;;3.53;;
4460;SDS011;2243;48.812;9.232;2023-06-19T12:40:55;3.93;;;3.53;;
4460;SDS011;2243;48.812;9.232;2023-06-19T12:43:26;3.83;;;3.63;;
4460;SDS011;2243;48.812;9.232;2023-06-19T12:45:57;3.53;;;3.23;;
4460;SDS011;2243;48.812;9.232;2023-06-19T12:48:29;3.83;;;3.23;;
4460;SDS011;2243;48.812;9.232;2023-06-19T12:51:00;3.40;;;3.20;;
4460;SDS011;2243;48.812;9.232;2023-06-19T12:53:31;3.80;;;3.60;;
4460;SDS011;2243;48.812;9.232;2023-06-19T12:56:02;4.10;;;3.90;;
4460;SDS011;2243;48.812;9.232;2023-06-19T12:58:41;4.17;;;3.73;;
4460;SDS011;2243;48.812;9.232;2023-06-19T13:01:12;7.43;;;3.53;;
4460;SDS011;2243;48.812;9.232;2023-06-19T13:03:43;3.97;;;3.77;;
4460;SDS011;2243;48.812;9.232;2023-06-19T13:06:14;3.40;;;3.20;;
4460;SDS011;2243;48.812;9.232;2023-06-19T13:08:45;4.43;;;3.97;;
4460;SDS011;2243;48.812;9.232;2023-06-19T13:11:16;3.23;;;3.13;;
4460;SDS011;2243;48.812;9.232;2023-06-19T13:13:47;3.70;;;3.40;;
4460;SDS011;2243;48.812;9.232;2023-06-19T13:16:18;3.23;;;3.13;;
4460;SDS011;2243;48.812;9.232;2023-06-19T13:19:09;3.80;;;3.60;;
4460;SDS011;2243;48.812;9.232;2023-06-19T13:21:40;3.77;;;3.57;;
4460;SDS011;2243;48.812;9.232;2023-06-19T13:24:12;3.38;;;3.28;;
4460;SDS011;2243;48.812;9.232;2023-06-19T13:26:43;3.30;;;3.10;;
4460;SDS011;2243;48.812;9.232;2023-06-19T13:29:15;3.10;;;2.90;;
4460;SDS011;2243;48.812;9.232;2023-06-19T13:31:46;3.33;;;3.23;;
4460;SDS011;2243;48.812;9.232;2023-06-19T13:34:17;3.33;;;3.13;;
4460;SDS011;2243;48.812;9.232;2023-06-19T13:36:48;6.40;;;3.63;;
4460;SDS011;2243;48.812;9.232;2023-06-19T13:39:19;4.10;;;3.20;;
4460;SDS011;2243;48.812;9.232;2023-06-19T13:41:51;4.20;;;4.00;;
4460;SDS011;2243;48.812;9.232;2023-06-19T13:44:22;3.13;;;2.93;;
4460;SDS011;2243;48.812;9.232;2023-06-19T13:46:53;3.70;;;3.30;;
4460;SDS011;2243;48.812;9.232;2023-06-19T13:49:24;3.93;;;3.73;;
4460;SDS011;2243;48.812;9.232;2023-06-19T13:51:55;9.63;;;3.50;;
4460;SDS011;2243;48.812;9.232;2023-06-19T13:54:26;3.83;;;3.63;;
4460;SDS011;2243;48.812;9.232;2023-06-19T13:56:57;3.60;;;3.40;;
4460;SDS011;2243;48.812;9.232;2023-06-19T13:59:29;3.50;;;3.30;;
4460;SDS011;2243;48.812;9.232;2023-06-19T14:02:00;3.15;;;2.95;;
4460;SDS011;2243;48.812;9.232;2023-06-19T14:04:31;3.67;;;3.40;;
4460;SDS011;2243;48.812;9.232;2023-06-19T14:07:02;3.45;;;3.25;;
4460;SDS011;2243;48.812;9.232;2023-06-19T14:09:33;3.25;;;3.10;;
4460;SDS011;2243;48.812;9.232;2023-06-19T14:12:05;3.73;;;3.63;;
4460;SDS011;2243;48.812;9.232;2023-06-19T14:14:36;3.40;;;3.30;;
4460;SDS011;2243;48.812;9.232;2023-06-19T14:17:07;4.17;;;3.97;;
4460;SDS011;2243;48.812;9.232;2023-06-19T14:19:38;2.93;;;2.73;;
4460;SDS011;2243;48.812;9.232;2023-06-19T14:22:09;5.30;;;3.30;;
4460;SDS011;2243;48.812;9.232;2023-06-19T14:24:40;3.30;;;3.07;;
4460;SDS011;2243;48.812;9.232;2023-06-19T14:27:11;3.80;;;3.60;;
4460;SDS011;2243;48.812;9.232;2023-06-19T14:29:42;4.40;;;3.53;;
4460;SDS011;2243;48.812;9.232;2023-06-19T14:32:13;3.67;;;3.47;;
4460;SDS011;2243;48.812;9.232;2023-06-19T14:34:44;3.43;;;3.23;;
4460;SDS011;2243;48.812;9.232;2023-06-19T14:37:15;4.40;;;3.87;;
4460;SDS011;2243;48.812;9.232;2023-06-19T14:39:47;3.25;;;3.15;;
4460;SDS011;2243;48.812;9.232;2023-06-19T14:42:18;3.83;;;3.63;;
4460;SDS011;2243;48.812;9.232;2023-06-19T14:44:49;3.72;;;3.53;;
4460;SDS011;2243;48.812;9.232;2023-06-19T14:47:20;3.33;;;3.10;;
4460;SDS011;2243;48.812;9.232;2023-06-19T14:49:51;3.75;;;3.55;;
4460;SDS011;2243;48.812;9.232;2023-06-19T14:52:22;4.18;;;3.78;;
4460;SDS011;2243;48.812;9.232;2023-06-19T14:54:53;3.70;;;3.50;;
4460;SDS011;2243;48.812;9.232;2023-06-19T14:57:28;3.53;;;3.33;;
4460;SDS011;2243;48.812;9.232;2023-06-19T14:59:59;3.30;;;3.20;;
4460;SDS011;2243;48.812;9.232;2023-06-19T15:02:30;3.83;;;3.60;;
4460;SDS011;2243;48.812;9.232;2023-06-19T15:05:02;3.75;;;3.55;;
4460;SDS011;2243;48.812;9.232;2023-06-19T15:07:36;3.13;;;3.03;;
4460;SDS011;2243;48.812;9.232;2023-06-19T15:10:07;4.10;;;3.90;;
4460;SDS011;2243;48.812;9.232;2023-06-19T15:12:39;3.83;;;3.53;;
4460;SDS011;2243;48.812;9.232;2023-06-19T15:15:10;3.20;;;3.10;;
4460;SDS011;2243;48.812;9.232;2023-06-19T15:17:41;3.40;;;3.20;;
4460;SDS011;2243;48.812;9.232;2023-06-19T15:20:12;3.10;;;3.00;;
4460;SDS011;2243;48.812;9.232;2023-06-19T15:22:47;3.03;;;2.92;;
4460;SDS011;2243;48.812;9.232;2023-06-19T15:25:18;3.47;;;3.27;;
4460;SDS011;2243;48.812;9.232;2023-06-19T15:27:49;3.75;;;3.45;;
4460;SDS011;2243;48.812;9.232;2023-06-19T15:30:20;5.88;;;3.38;;
4460;SDS011;2243;48.812;9.232;2023-06-19T15:32:52;5.60;;;3.00;;
4460;SDS011;2243;48.812;9.232;2023-06-19T15:35:24;3.33;;;3.13;;
4460;SDS011;2243;48.812;9.232;2023-06-19T15:37:56;3.67;;;3.28;;
4460;SDS011;2243;48.812;9.232;2023-06-19T15:40:28;3.35;;;3.25;;
4460;SDS011;2243;48.812;9.232;2023-06-19T15:43:00;7.60;;;3.58;;
4460;SDS011;2243;48.812;9.232;2023-06-19T15:45:31;3.58;;;3.47;;
4460;SDS011;2243;48.812;9.232;2023-06-19T15:48:02;5.30;;;3.37;;
4460;SDS011;2243;48.812;9.232;2023-06-19T15:50:35;3.17;;;2.97;;
4460;SDS011;2243;48.812;9.232;2023-06-19T15:53:06;3.20;;;3.10;;
4460;SDS011;2243;48.812;9.232;2023-06-19T15:55:37;4.17;;;3.53;;
4460;SDS011;2243;48.812;9.232;2023-06-19T15:58:08;3.97;;;3.77;;